Time;durP1;ratioP1;P1;durP2;ratioP2;P2;SDS_P1;SDS_P2;PMS_P1;PMS_P2;Temp;Humidity;BMP_temperature;BMP_pressure;BME280_temperature;BME280_humidity;BME280_pressure;Samples;Min_cycle;Max_cycle;Signal;HPM_P1;HPM_P2
2022/06/24 00:02:12;;;;;;;7.05;1.00;;;17.90;99.90;;;17.48;100.00;97076.69;5037943;28;20084;-70
2022/06/24 00:04:40;;;;;;;5.45;1.17;;;17.90;99.90;;;17.55;100.00;97075.22;5037133;28;20559;-71
2022/06/24 00:07:16;;;;;;;6.07;1.10;;;18.00;99.90;;;17.51;100.00;97068.56;5035612;28;20049;-70
2022/06/24 00:09:44;;;;;;;5.80;1.10;;;18.00;99.90;;;17.17;100.00;97082.63;5040806;28;20483;-71
2022/06/24 00:12:14;;;;;;;5.07;0.88;;;17.90;99.90;;;16.93;100.00;97086.19;5042732;28;20624;-71
2022/06/24 00:14:45;;;;;;;5.38;1.00;;;17.80;99.90;;;17.00;100.00;97079.53;5041445;28;20083;-71
2022/06/24 00:17:14;;;;;;;4.78;1.00;;;17.70;99.90;;;16.99;100.00;97077.88;5035787;28;20102;-71
2022/06/24 00:20:06;;;;;;;6.55;1.00;;;17.60;99.90;;;16.87;100.00;97084.03;5040304;28;20102;-70
2022/06/24 00:22:46;;;;;;;6.85;1.10;;;17.50;99.90;;;16.84;100.00;97095.59;5040524;28;20456;-70
2022/06/24 00:25:24;;;;;;;6.28;1.38;;;17.50;99.90;;;16.75;100.00;97083.16;5038611;28;20522;-70
2022/06/24 00:28:11;;;;;;;5.28;1.20;;;17.40;99.90;;;16.81;100.00;97080.09;5039207;28;20081;-71
2022/06/24 00:30:41;;;;;;;8.20;1.17;;;17.40;99.90;;;16.76;100.00;97079.56;5039188;28;20419;-71
2022/06/24 00:33:17;;;;;;;7.35;1.00;;;17.40;99.90;;;16.81;100.00;97079.25;5037544;28;20044;-71
2022/06/24 00:35:52;;;;;;;5.10;1.20;;;17.30;99.90;;;16.69;100.00;97084.47;5037873;28;20052;-70
2022/06/24 00:38:35;;;;;;;5.72;1.02;;;17.40;99.90;;;16.75;100.00;97084.94;5040924;28;20530;-71
2022/06/24 00:41:14;;;;;;;6.45;1.17;;;17.40;99.90;;;16.93;100.00;97087.03;5035265;28;20095;-70
2022/06/24 00:43:45;;;;;;;4.28;1.10;;;17.30;99.90;;;17.01;100.00;97089.06;5038018;28;20207;-70
2022/06/24 00:46:23;;;;;;;5.38;1.23;;;17.40;99.90;;;16.97;100.00;97086.78;5037988;28;20132;-72
2022/06/24 00:48:56;;;;;;;7.43;1.20;;;17.40;99.90;;;16.91;100.00;97095.97;5040686;28;20056;-71
2022/06/24 00:51:36;;;;;;;8.40;1.00;;;17.40;99.90;;;17.03;100.00;97089.78;5040152;28;20041;-71
2022/06/24 00:54:13;;;;;;;4.60;1.13;;;17.50;99.90;;;16.99;100.00;97088.38;5039806;28;20052;-70
2022/06/24 00:56:41;;;;;;;3.65;0.98;;;17.40;99.90;;;16.93;100.00;97091.44;5040781;28;20051;-70
2022/06/24 00:59:12;;;;;;;4.75;1.23;;;17.40;99.90;;;17.10;100.00;97090.97;5034871;28;20128;-70
2022/06/24 01:01:42;;;;;;;7.00;1.00;;;17.40;99.90;;;16.90;100.00;97097.75;5034457;28;20500;-70
2022/06/24 01:04:11;;;;;;;7.47;1.00;;;17.40;99.90;;;16.97;100.00;97090.25;5039802;28;20045;-69
2022/06/24 01:06:42;;;;;;;4.75;0.90;;;17.40;99.90;;;17.10;100.00;97090.97;5041133;28;20041;-70
2022/06/24 01:09:09;;;;;;;5.25;1.25;;;17.40;99.90;;;16.98;100.00;97101.56;5045578;28;20098;-71
2022/06/24 01:11:42;;;;;;;5.88;1.10;;;17.50;99.90;;;17.07;100.00;97087.75;5048331;28;20128;-71
2022/06/24 01:14:10;;;;;;;;;;;17.50;99.90;;;17.00;100.00;97092.63;5044064;28;20045;-71
2022/06/24 01:16:37;;;;;;;6.72;1.02;;;17.50;99.90;;;17.18;100.00;97102.69;5048877;28;20321;-71
2022/06/24 01:19:08;;;;;;;4.70;1.08;;;17.50;99.90;;;17.19;100.00;97101.72;5043956;28;20056;-71
2022/06/24 01:21:44;;;;;;;3.97;0.90;;;17.50;99.90;;;17.34;100.00;97092.66;5050950;28;20563;-71
2022/06/24 01:24:18;;;;;;;6.25;1.10;;;17.60;99.90;;;17.13;100.00;97097.78;5051355;28;20041;-71
2022/06/24 01:26:57;;;;;;;3.35;1.35;;;17.60;99.90;;;17.31;100.00;97085.00;5050284;28;20180;-72
2022/06/24 01:29:25;;;;;;;6.50;0.90;;;17.60;99.90;;;17.31;100.00;97087.63;5046355;28;20107;-71
2022/06/24 01:31:53;;;;;;;4.75;1.40;;;17.60;99.90;;;17.14;100.00;97091.56;5046493;28;20045;-71
2022/06/24 01:34:23;;;;;;;6.50;1.02;;;17.60;99.90;;;17.10;100.00;97100.63;5049824;28;20404;-71
2022/06/24 01:36:50;;;;;;;5.45;1.05;;;17.50;99.90;;;17.07;100.00;97112.19;5049932;28;20136;-71
2022/06/24 01:39:20;;;;;;;5.53;1.10;;;17.50;99.90;;;17.00;100.00;97100.50;5048199;28;20044;-71
2022/06/24 01:41:48;;;;;;;5.45;1.20;;;17.40;99.90;;;16.99;100.00;97108.47;5045035;28;20045;-71
2022/06/24 01:44:15;;;;;;;5.72;1.20;;;17.40;99.90;;;16.86;100.00;97113.84;5045331;28;20143;-71
2022/06/24 01:46:43;;;;;;;4.60;1.00;;;17.40;99.90;;;16.91;100.00;97103.81;5046382;28;20500;-71
2022/06/24 01:49:10;;;;;;;5.82;1.20;;;17.30;99.90;;;17.00;100.00;97095.25;5045987;28;20044;-71
2022/06/24 01:51:40;;;;;;;4.70;1.20;;;17.30;99.90;;;17.08;100.00;97092.91;5047086;28;20163;-70
2022/06/24 01:54:08;;;;;;;6.47;1.10;;;17.40;99.90;;;17.12;100.00;97085.63;5052779;28;20102;-70
2022/06/24 01:56:35;;;;;;;6.97;1.38;;;17.40;99.90;;;16.99;100.00;97079.63;5050208;28;20084;-70
2022/06/24 01:59:04;;;;;;;3.78;1.20;;;17.40;99.90;;;16.93;100.00;97076.53;5042199;28;20144;-70
2022/06/24 02:01:31;;;;;;;5.20;1.40;;;17.40;99.90;;;16.91;100.00;97078.44;5046498;28;20041;-70
2022/06/24 02:03:58;;;;;;;7.53;1.50;;;17.30;99.90;;;16.79;100.00;97071.53;5046866;28;20090;-71
2022/06/24 02:06:25;;;;;;;4.55;1.27;;;17.30;99.90;;;16.79;100.00;97068.03;5051510;28;20076;-70
2022/06/24 02:08:52;;;;;;;6.38;1.50;;;17.30;99.90;;;16.68;100.00;97067.06;5053577;28;20123;-71
2022/06/24 02:14:09;;;;;;;7.45;1.40;;;17.20;99.90;;;16.66;100.00;97057.63;5046863;28;20504;-70
2022/06/24 02:16:38;;;;;;;5.88;1.30;;;17.30;99.90;;;16.78;100.00;97053.25;5049518;28;20080;-71
2022/06/24 02:19:06;;;;;;;10.85;1.67;;;17.20;99.90;;;16.63;100.00;97048.22;5043999;28;20053;-70
2022/06/24 02:21:35;;;;;;;6.22;1.50;;;17.20;99.90;;;16.71;100.00;97045.00;5050877;28;20159;-70
2022/06/24 02:24:02;;;;;;;7.05;1.38;;;17.20;99.90;;;16.77;100.00;97041.94;5048479;28;20132;-70
2022/06/24 02:26:30;;;;;;;6.57;1.45;;;17.20;99.90;;;16.93;100.00;97039.00;5048325;28;20056;-70
2022/06/24 02:28:57;;;;;;;7.38;1.60;;;17.20;99.90;;;17.00;100.00;97028.88;5044496;28;20127;-70
2022/06/24 02:31:24;;;;;;;9.93;1.70;;;17.30;99.90;;;16.90;100.00;97023.50;5045751;28;20128;-70
2022/06/24 02:33:51;;;;;;;6.60;1.20;;;17.30;99.90;;;16.91;100.00;97018.16;5049007;28;20059;-71
2022/06/24 02:36:19;;;;;;;9.48;1.65;;;17.20;99.90;;;16.83;100.00;97015.31;5045478;28;20077;-71
2022/06/24 02:38:46;;;;;;;7.32;1.55;;;17.20;99.90;;;16.93;100.00;97007.56;5045827;28;20103;-71
2022/06/24 02:41:13;;;;;;;9.00;1.40;;;17.20;99.90;;;16.91;100.00;96998.97;5047340;28;20150;-71
2022/06/24 02:43:41;;;;;;;5.60;1.30;;;17.30;99.90;;;16.90;100.00;97002.53;5046667;28;20037;-71
2022/06/24 02:46:10;;;;;;;8.82;1.65;;;17.30;99.90;;;16.92;100.00;96992.75;5050161;28;20103;-70
2022/06/24 02:48:40;;;;;;;7.78;1.27;;;17.30;99.90;;;17.02;100.00;96988.47;5051127;28;20696;-70
2022/06/24 02:51:10;;;;;;;7.90;1.83;;;17.30;99.90;;;16.98;100.00;96992.28;5045601;28;20553;-70
2022/06/24 02:53:38;;;;;;;4.07;1.52;;;17.40;99.90;;;16.98;100.00;96989.66;5045486;28;20053;-71
2022/06/24 02:56:12;;;;;;;8.40;1.80;;;17.40;99.90;;;16.86;100.00;96977.53;5046690;28;20172;-71
2022/06/24 02:58:41;;;;;;;9.35;1.70;;;17.30;99.90;;;16.82;100.00;96976.09;5044918;28;20049;-70
2022/06/24 03:01:08;;;;;;;10.85;2.30;;;17.30;99.90;;;16.85;100.00;96981.09;5043221;28;20068;-70
2022/06/24 03:03:35;;;;;;;11.82;2.05;;;17.20;99.90;;;16.85;100.00;96975.84;5047750;28;20052;-70
2022/06/24 03:06:04;;;;;;;11.82;1.90;;;17.20;99.90;;;16.82;100.00;96974.28;5047246;28;20076;-70
2022/06/24 03:08:31;;;;;;;9.65;2.35;;;17.20;99.90;;;16.81;100.00;96972.66;5043660;28;20477;-70
2022/06/24 03:10:58;;;;;;;6.20;1.50;;;17.20;99.90;;;16.71;100.00;96972.47;5046974;28;20106;-70
2022/06/24 03:13:26;;;;;;;8.60;2.00;;;17.20;99.90;;;16.79;100.00;96971.94;5049962;28;20056;-70
2022/06/24 03:15:53;;;;;;;8.20;2.15;;;17.10;99.90;;;16.79;100.00;96978.94;5055323;28;20098;-70
2022/06/24 03:18:20;;;;;;;6.38;2.10;;;17.10;99.90;;;16.51;100.00;96981.00;5047373;28;20812;-71
2022/06/24 03:20:47;;;;;;;8.63;2.22;;;17.00;99.90;;;16.48;100.00;96987.31;5045053;28;20131;-71
2022/06/24 03:23:15;;;;;;;10.40;2.15;;;17.00;99.90;;;16.58;100.00;96973.53;5048589;28;20079;-70
2022/06/24 03:25:43;;;;;;;5.28;1.73;;;17.00;99.90;;;16.62;100.00;96973.19;5046343;28;20072;-70
2022/06/24 03:28:11;;;;;;;11.10;2.80;;;17.00;99.90;;;16.44;100.00;96974.59;5043052;28;20044;-70
2022/06/24 03:30:39;;;;;;;8.48;2.05;;;17.00;99.90;;;16.53;100.00;96963.41;5045396;28;20648;-70
2022/06/24 03:33:06;;;;;;;6.68;2.53;;;17.00;99.90;;;16.50;100.00;96964.47;5044965;28;20463;-70
2022/06/24 03:35:33;;;;;;;8.63;2.45;;;16.90;99.90;;;16.39;100.00;96976.72;5048410;28;20418;-70
2022/06/24 03:38:01;;;;;;;8.05;2.22;;;16.90;99.90;;;16.36;100.00;96988.28;5046174;28;20763;-70
2022/06/24 03:40:28;;;;;;;9.02;2.83;;;16.80;99.90;;;16.31;100.00;96993.84;5045669;28;20135;-71
2022/06/24 03:42:55;;;;;;;6.22;2.85;;;16.90;99.90;;;16.37;100.00;96997.78;5046161;28;20079;-70
2022/06/24 03:45:22;;;;;;;10.43;2.40;;;16.80;99.90;;;16.47;100.00;96984.84;5047489;28;20479;-70
2022/06/24 03:47:49;;;;;;;11.00;3.20;;;16.80;99.90;;;16.36;100.00;96977.78;5049210;28;20475;-70
2022/06/24 03:50:16;;;;;;;7.45;3.45;;;16.90;99.90;;;16.48;100.00;96982.09;5051020;28;20080;-70
2022/06/24 03:52:44;;;;;;;7.85;2.85;;;17.00;99.90;;;16.33;100.00;97001.59;5046324;28;20060;-70
2022/06/24 03:55:11;;;;;;;11.23;3.28;;;16.90;99.90;;;16.23;100.00;96996.19;5045083;28;20049;-70
2022/06/24 03:57:39;;;;;;;8.82;2.83;;;17.00;99.90;;;16.52;100.00;96994.00;5044427;28;20076;-70
2022/06/24 04:00:07;;;;;;;10.32;3.75;;;17.00;99.90;;;16.40;100.00;96997.56;5046932;28;20299;-70
2022/06/24 04:02:36;;;;;;;14.23;2.95;;;17.00;99.90;;;16.41;100.00;97008.88;5046334;28;20068;-70
2022/06/24 04:05:10;;;;;;;13.10;3.33;;;17.00;99.90;;;16.29;100.00;96995.75;5042805;28;20462;-70
2022/06/24 04:07:38;;;;;;;9.52;3.67;;;16.90;99.90;;;16.28;100.00;96998.47;5043480;28;20804;-70
2022/06/24 04:10:05;;;;;;;14.45;3.80;;;17.00;99.90;;;16.51;100.00;96989.72;5044574;28;20502;-70
2022/06/24 04:12:32;;;;;;;10.07;3.22;;;17.00;99.90;;;16.59;100.00;96985.69;5046181;28;20050;-70
2022/06/24 04:15:17;;;;;;;13.65;3.65;;;17.00;99.90;;;16.48;100.00;97008.28;5047997;28;20455;-70
2022/06/24 04:17:49;;;;;;;7.82;3.63;;;17.10;99.90;;;16.51;100.00;96996.72;5046509;28;20052;-71
2022/06/24 04:20:18;;;;;;;12.55;4.50;;;17.10;99.90;;;16.31;100.00;97006.94;5045437;28;20115;-71
2022/06/24 04:22:46;;;;;;;13.02;4.68;;;17.10;99.90;;;16.29;100.00;97008.00;5045470;28;20048;-71
2022/06/24 04:25:13;;;;;;;10.48;3.42;;;17.10;99.90;;;16.46;100.00;97028.53;5041897;28;20474;-71
2022/06/24 04:27:40;;;;;;;12.18;3.10;;;17.00;99.90;;;16.65;100.00;97020.13;5047495;28;20266;-70
2022/06/24 04:30:10;;;;;;;8.80;4.05;;;17.10;99.90;;;16.47;100.00;97026.75;5046207;28;20068;-71
2022/06/24 04:32:38;;;;;;;13.65;3.67;;;17.10;99.90;;;16.63;100.00;97011.53;5046752;28;20131;-71
2022/06/24 04:35:06;;;;;;;14.55;3.72;;;17.10;99.90;;;16.47;100.00;97029.38;5043064;28;20144;-71
2022/06/24 04:37:37;;;;;;;12.02;3.30;;;17.10;99.90;;;16.60;100.00;97027.47;5044965;28;20045;-71
2022/06/24 04:40:09;;;;;;;6.70;2.90;;;17.20;99.90;;;16.50;100.00;97023.91;5046508;28;20126;-71
2022/06/24 04:42:36;;;;;;;8.20;2.50;;;17.20;99.90;;;16.82;100.00;97011.00;5042348;28;20507;-71
2022/06/24 04:45:05;;;;;;;9.27;2.58;;;17.20;99.90;;;16.98;100.00;97018.50;5043695;28;20081;-71
2022/06/24 04:47:32;;;;;;;7.22;3.05;;;17.30;99.90;;;16.83;100.00;97015.31;5041362;28;20125;-71
2022/06/24 04:49:59;;;;;;;8.68;2.63;;;17.40;99.90;;;16.95;100.00;97008.28;5037681;28;20072;-71
2022/06/24 04:52:26;;;;;;;7.65;2.70;;;17.50;99.90;;;16.84;100.00;97019.56;5043676;28;20124;-71
2022/06/24 04:54:53;;;;;;;6.40;2.80;;;17.50;99.90;;;16.75;100.00;96996.66;5044498;28;20053;-71
2022/06/24 04:57:21;;;;;;;6.35;2.50;;;17.50;99.90;;;16.89;100.00;97006.13;5043845;28;20056;-70
2022/06/24 04:59:48;;;;;;;9.73;2.80;;;17.50;99.90;;;17.00;100.00;97007.91;5048375;28;20076;-70
2022/06/24 05:02:15;;;;;;;12.80;2.97;;;17.60;99.90;;;16.90;100.00;97013.00;5044004;28;20718;-70
2022/06/24 05:04:42;;;;;;;7.75;2.63;;;17.60;99.90;;;16.89;100.00;97013.97;5044570;28;20049;-70
2022/06/24 05:07:09;;;;;;;8.00;3.10;;;17.60;99.90;;;16.70;100.00;97012.75;5044734;28;20155;-69
2022/06/24 05:09:36;;;;;;;12.98;2.55;;;17.70;99.90;;;16.81;100.00;97025.06;5051217;28;20072;-69
2022/06/24 05:12:04;;;;;;;11.02;4.03;;;17.60;99.90;;;16.74;100.00;97026.47;5052962;28;20128;-69
2022/06/24 05:14:32;;;;;;;8.30;3.20;;;17.60;99.90;;;16.99;100.00;97014.09;5053216;28;20052;-70
2022/06/24 05:17:01;;;;;;;5.65;3.13;;;17.60;99.90;;;16.99;100.00;97020.19;5044778;28;20101;-70
2022/06/24 05:19:28;;;;;;;7.43;3.10;;;17.60;99.90;;;16.75;100.00;97022.88;5048371;28;20813;-70
2022/06/24 05:21:55;;;;;;;9.25;3.30;;;17.60;99.90;;;16.93;100.00;97012.78;5046366;28;20135;-70
2022/06/24 05:24:23;;;;;;;13.32;3.33;;;17.60;99.90;;;16.96;100.00;97007.31;5047089;28;20530;-71
2022/06/24 05:26:51;;;;;;;16.67;3.50;;;17.60;99.90;;;16.79;100.00;97010.38;5047161;28;20136;-70
2022/06/24 05:29:18;;;;;;;7.93;3.47;;;17.60;99.90;;;16.69;100.00;97015.47;5052972;28;20092;-71
2022/06/24 05:31:45;;;;;;;9.02;3.15;;;17.60;99.90;;;16.86;100.00;97019.47;5049618;28;20466;-71
2022/06/24 05:34:13;;;;;;;6.82;2.83;;;17.70;99.90;;;16.97;100.00;97011.63;5051439;28;20110;-71
2022/06/24 05:36:41;;;;;;;9.25;3.15;;;17.70;99.90;;;16.93;100.00;97018.88;5041634;28;20077;-70
2022/06/24 05:39:09;;;;;;;7.93;2.70;;;17.80;99.90;;;17.12;100.00;97020.88;5053091;28;20049;-70
2022/06/24 05:41:41;;;;;;;7.72;2.58;;;17.80;99.90;;;17.14;100.00;97013.72;5053305;28;20049;-70
2022/06/24 05:44:09;;;;;;;6.95;2.33;;;17.90;99.90;;;17.12;100.00;97010.41;5048663;28;20548;-71
2022/06/24 05:46:38;;;;;;;6.40;2.67;;;17.90;99.90;;;17.24;100.00;97013.00;5045243;28;20102;-71
2022/06/24 05:49:05;;;;;;;8.98;2.88;;;17.90;99.90;;;17.22;100.00;97005.28;5046135;28;20459;-70
2022/06/24 05:51:35;;;;;;;7.90;2.28;;;18.00;99.90;;;17.02;100.00;97013.88;5048587;28;20122;-70
2022/06/24 05:56:48;;;;;;;4.90;1.70;;;18.10;99.90;;;17.51;100.00;96996.88;5048024;28;20055;-69
2022/06/24 05:59:15;;;;;;;3.42;1.70;;;18.20;99.90;;;17.43;100.00;96999.28;5052935;28;20106;-69
2022/06/24 06:01:42;;;;;;;7.97;2.55;;;18.20;99.90;;;17.11;100.00;97000.88;5050896;28;20049;-70
2022/06/24 06:04:09;;;;;;;6.60;1.95;;;18.10;99.90;;;17.08;100.00;97006.38;5051826;28;20053;-69
2022/06/24 06:06:37;;;;;;;8.73;2.05;;;18.00;99.90;;;17.20;100.00;96996.69;5051656;28;20045;-69
2022/06/24 06:09:04;;;;;;;8.45;2.40;;;18.00;99.90;;;17.10;100.00;97006.22;5050408;28;20072;-70
2022/06/24 06:11:31;;;;;;;7.95;2.03;;;17.90;99.90;;;17.06;100.00;96999.56;5049895;28;20089;-70
2022/06/24 06:13:58;;;;;;;8.57;2.33;;;17.90;99.90;;;17.40;100.00;97004.75;5059973;28;20079;-70
2022/06/24 06:16:26;;;;;;;9.38;2.58;;;18.00;99.90;;;17.56;100.00;97003.44;5050669;28;20052;-70
2022/06/24 06:18:54;;;;;;;6.57;1.90;;;18.10;99.90;;;17.69;100.00;96999.81;5049353;28;20128;-70
2022/06/24 06:21:21;;;;;;;5.07;2.22;;;18.20;99.90;;;17.83;100.00;96999.56;5065790;28;20072;-70
2022/06/24 06:23:49;;;;;;;6.82;1.90;;;18.20;99.90;;;17.88;100.00;96996.56;5064155;28;20057;-70
2022/06/24 06:26:16;;;;;;;4.05;1.80;;;18.30;99.90;;;17.95;100.00;96995.94;5041891;28;20072;-70
2022/06/24 06:28:43;;;;;;;5.50;2.08;;;18.50;99.90;;;17.86;100.00;96996.72;5042635;28;20140;-70
2022/06/24 06:31:10;;;;;;;9.40;1.95;;;18.50;99.90;;;17.63;100.00;96995.06;5042550;28;20087;-70
2022/06/24 06:33:38;;;;;;;6.43;1.83;;;18.40;99.90;;;17.95;100.00;96989.88;5043401;28;20080;-70
2022/06/24 06:36:11;;;;;;;6.22;2.00;;;18.50;99.90;;;18.27;100.00;96991.59;5045017;28;20151;-70
2022/06/24 06:38:39;;;;;;;5.70;1.73;;;18.70;99.90;;;18.57;100.00;96986.44;5046092;28;20056;-70
2022/06/24 06:41:17;;;;;;;12.38;2.58;;;19.00;99.90;;;18.43;100.00;96978.88;5049335;28;20052;-70
2022/06/24 06:43:44;;;;;;;6.50;1.88;;;19.20;99.90;;;18.27;100.00;96983.72;5048509;28;20045;-71
2022/06/24 06:46:11;;;;;;;7.78;1.92;;;19.30;99.90;;;18.17;100.00;96989.75;5041426;28;20213;-70
2022/06/24 06:48:39;;;;;;;9.60;2.30;;;19.20;99.90;;;17.70;100.00;96991.00;5043241;28;20079;-71
2022/06/24 06:51:06;;;;;;;5.80;2.80;;;19.00;99.90;;;17.80;100.00;96997.16;5045514;28;20140;-71
2022/06/24 06:53:33;;;;;;;5.53;1.85;;;18.80;99.90;;;18.19;100.00;96992.25;5041375;28;20065;-71
2022/06/24 06:56:01;;;;;;;5.05;2.35;;;18.80;99.90;;;17.97;100.00;96988.78;5043462;28;20084;-71
2022/06/24 06:58:28;;;;;;;8.57;2.35;;;18.80;99.90;;;17.94;100.00;96991.66;5042914;28;20669;-71
2022/06/24 07:00:55;;;;;;;10.32;2.65;;;18.80;99.90;;;18.20;100.00;96991.31;5048637;28;20102;-70
2022/06/24 07:03:22;;;;;;;5.75;2.03;;;18.80;99.90;;;18.32;100.00;96985.03;5043363;28;20110;-70
2022/06/24 07:05:50;;;;;;;8.75;2.83;;;19.00;99.90;;;18.20;100.00;96996.56;5044477;28;20040;-71
2022/06/24 07:08:17;;;;;;;7.15;2.45;;;19.00;99.90;;;18.21;100.00;96987.72;5045150;28;20136;-71
2022/06/24 07:10:45;;;;;;;5.63;2.42;;;19.10;99.90;;;18.56;100.00;96976.84;5044904;28;20128;-71
2022/06/24 07:13:13;;;;;;;6.68;2.10;;;19.30;99.90;;;18.38;100.00;96978.41;5046963;28;20076;-70
2022/06/24 07:15:40;;;;;;;5.95;2.55;;;19.40;99.90;;;18.42;100.00;96976.38;5046437;28;20129;-70
2022/06/24 07:18:08;;;;;;;3.90;1.90;;;19.50;99.90;;;18.73;100.00;96975.44;5041710;28;20052;-70
2022/06/24 07:20:35;;;;;;;4.72;1.73;;;19.50;99.90;;;18.47;100.00;96974.19;5046715;28;20117;-70
2022/06/24 07:23:02;;;;;;;6.85;2.63;;;19.50;99.90;;;18.30;100.00;96978.25;5046024;28;20048;-70
2022/06/24 07:25:32;;;;;;;5.28;2.08;;;19.50;99.90;;;18.65;100.00;96983.13;5046377;28;20124;-70
2022/06/24 07:28:00;;;;;;;7.05;2.95;;;19.40;99.90;;;18.15;100.00;96988.22;5040781;28;20132;-70
2022/06/24 07:30:27;;;;;;;8.02;2.47;;;19.40;99.90;;;18.17;100.00;97000.25;5043958;28;20072;-70
2022/06/24 07:32:54;;;;;;;5.28;2.65;;;19.30;99.90;;;18.39;100.00;96994.06;5044580;28;20132;-70
2022/06/24 07:35:22;;;;;;;4.10;2.38;;;19.40;99.90;;;18.76;100.00;96990.13;5044932;28;20150;-70
2022/06/24 07:38:09;;;;;;;6.05;2.20;;;19.50;99.90;;;19.23;100.00;96983.44;5043247;28;20435;-70
2022/06/24 07:40:36;;;;;;;5.25;2.47;;;19.80;99.90;;;18.57;100.00;96980.34;5042725;28;20172;-70
2022/06/24 07:43:03;;;;;;;8.18;2.25;;;19.90;99.90;;;18.87;100.00;96976.91;5039974;28;20106;-70
2022/06/24 07:45:30;;;;;;;5.03;1.83;;;20.00;99.90;;;18.85;100.00;96972.75;5044496;28;20048;-70
2022/06/24 07:47:58;;;;;;;7.72;2.00;;;20.10;99.90;;;19.19;100.00;96960.16;5044010;28;20116;-70
2022/06/24 07:50:25;;;;;;;6.22;1.90;;;20.40;99.90;;;19.60;100.00;96961.75;5041383;28;20553;-70
2022/06/24 07:52:52;;;;;;;6.53;2.42;;;20.50;99.90;;;19.51;100.00;96951.22;5043638;28;20048;-70
2022/06/24 07:58:06;;;;;;;6.70;2.13;;;20.70;99.90;;;20.01;100.00;96944.06;5040861;28;20075;-70
2022/06/24 08:00:33;;;;;;;5.78;2.15;;;21.00;99.90;;;20.23;100.00;96945.56;5042562;28;20128;-70
2022/06/24 08:03:00;;;;;;;3.95;1.60;;;21.40;99.90;;;21.27;100.00;96934.94;5043777;28;20120;-70
2022/06/24 08:05:27;;;;;;;6.78;1.92;;;21.70;99.90;;;20.64;100.00;96934.81;5043157;28;20045;-70
2022/06/24 08:07:54;;;;;;;5.63;1.98;;;21.70;99.90;;;20.41;100.00;96931.66;5044216;28;20072;-70
2022/06/24 08:10:22;;;;;;;4.80;1.30;;;21.50;99.90;;;20.01;100.00;96936.16;5044155;28;20071;-70
2022/06/24 08:12:49;;;;;;;4.47;1.27;;;21.30;99.90;;;19.93;100.00;96927.28;5043493;28;20140;-71
2022/06/24 08:15:17;;;;;;;5.00;1.58;;;21.20;99.90;;;20.27;100.00;96933.78;5045543;28;20135;-70
2022/06/24 08:17:44;;;;;;;4.07;1.73;;;21.10;99.90;;;19.96;100.00;96935.75;5042947;28;20126;-71
2022/06/24 08:20:11;;;;;;;4.13;1.70;;;21.10;99.90;;;20.13;100.00;96931.56;5041573;28;20099;-71
2022/06/24 08:22:38;;;;;;;4.97;1.40;;;21.50;99.90;;;19.96;100.00;96930.50;5042794;28;20046;-70
2022/06/24 08:25:08;;;;;;;3.80;1.30;;;21.60;99.90;;;19.99;100.00;96924.09;5046252;28;20130;-71
2022/06/24 08:27:51;;;;;;;4.32;1.75;;;21.60;99.90;;;19.88;100.00;96932.97;5040983;28;20053;-71
2022/06/24 08:30:19;;;;;;;3.33;1.65;;;21.50;99.90;;;20.16;100.00;96926.03;5058469;28;20475;-71
2022/06/24 08:32:46;;;;;;;3.58;1.80;;;21.30;99.90;;;19.98;100.00;96928.53;5042117;28;20075;-71
2022/06/24 08:35:13;;;;;;;5.90;2.05;;;21.10;99.90;;;19.81;100.00;96922.16;5041720;28;20102;-71
2022/06/24 08:37:58;;;;;;;9.25;1.80;;;21.10;99.90;;;20.46;100.00;96935.53;5042445;28;20060;-71
2022/06/24 08:40:27;;;;;;;5.43;2.28;;;21.10;99.90;;;20.35;100.00;96929.59;5043151;28;20772;-70
2022/06/24 08:42:57;;;;;;;7.00;1.67;;;21.40;99.90;;;20.07;100.00;96929.50;5038443;28;20402;-71
2022/06/24 08:45:26;;;;;;;5.65;2.25;;;21.20;99.90;;;19.81;100.00;96926.59;5057075;28;20061;-71
2022/06/24 08:47:54;;;;;;;5.80;2.33;;;21.00;99.90;;;19.79;100.00;96925.91;5042914;28;20083;-71
2022/06/24 08:50:21;;;;;;;5.15;1.88;;;21.20;99.90;;;20.37;100.00;96928.47;5041792;28;20476;-71
2022/06/24 08:52:54;;;;;;;8.38;2.15;;;21.20;99.90;;;19.56;100.00;96923.50;5042925;28;20602;-71
2022/06/24 08:55:24;;;;;;;5.07;1.65;;;21.40;99.90;;;20.67;100.00;96926.63;5043322;28;20068;-70
2022/06/24 08:57:52;;;;;;;3.97;1.60;;;21.50;99.90;;;20.48;100.00;96916.91;5042846;28;20551;-71
2022/06/24 09:00:20;;;;;;;3.03;1.63;;;21.50;99.90;;;20.56;100.00;96918.84;5042561;28;20052;-71
2022/06/24 09:02:48;;;;;;;6.30;1.90;;;21.50;99.90;;;20.48;100.00;96916.91;5039069;28;20801;-71
2022/06/24 09:05:16;;;;;;;4.05;2.00;;;21.50;99.90;;;21.00;100.00;96912.03;5033693;28;20072;-71
2022/06/24 09:07:45;;;;;;;3.05;1.77;;;21.80;99.90;;;21.01;100.00;96911.06;5038429;28;20478;-71
2022/06/24 09:10:13;;;;;;;7.43;1.70;;;22.20;99.90;;;21.28;100.00;96906.75;5041970;28;20076;-71
2022/06/24 09:12:45;;;;;;;5.18;1.67;;;22.50;99.90;;;21.60;100.00;96897.50;5041015;28;20055;-71
2022/06/24 09:15:14;;;;;;;4.65;1.20;;;22.90;99.90;;;21.20;100.00;96896.09;5040903;28;20103;-71
2022/06/24 09:17:43;;;;;;;4.68;1.25;;;22.90;99.90;;;21.10;100.00;96899.63;5040716;28;20079;-71
2022/06/24 09:20:20;;;;;;;4.65;1.30;;;22.70;99.90;;;20.60;100.00;96904.44;5037120;28;20131;-71
2022/06/24 09:23:10;;;;;;;5.78;1.30;;;22.40;99.90;;;21.30;100.00;96896.84;5042235;28;20413;-71
2022/06/24 09:25:53;;;;;;;4.45;1.33;;;22.30;99.90;;;20.75;100.00;96897.72;5039452;28;20713;-71
2022/06/24 09:28:29;;;;;;;1.92;0.98;;;22.30;99.90;;;21.28;100.00;96899.66;5042663;28;20156;-71
2022/06/24 09:31:26;;;;;;;4.20;1.00;;;22.50;99.90;;;22.18;100.00;96875.03;5046486;28;20131;-71
2022/06/24 09:33:55;;;;;;;3.30;1.20;;;22.80;99.90;;;22.23;100.00;96867.50;5047920;28;20053;-71
2022/06/24 09:36:25;;;;;;;3.15;1.20;;;23.20;99.90;;;22.65;100.00;96858.78;5046614;28;20136;-71
2022/06/24 09:39:07;;;;;;;5.63;1.15;;;23.40;99.90;;;22.87;100.00;96860.84;5045383;28;20143;-71
2022/06/24 09:41:50;;;;;;;4.43;0.90;;;23.60;99.90;;;23.76;100.00;96848.00;5044152;28;20076;-69
2022/06/24 09:44:18;;;;;;;6.57;1.17;;;23.90;99.90;;;23.37;100.00;96848.63;5045568;28;20045;-69
2022/06/24 09:46:47;;;;;;;2.83;1.00;;;24.10;99.90;;;22.88;100.00;96854.59;5044697;28;20749;-71
2022/06/24 09:49:17;;;;;;;3.83;0.93;;;24.00;99.90;;;23.25;100.00;96860.53;5044259;28;20048;-69
2022/06/24 09:51:45;;;;;;;2.08;0.75;;;24.30;99.90;;;23.11;100.00;96856.69;5046121;28;20041;-70
2022/06/24 09:54:14;;;;;;;5.82;1.00;;;24.70;99.90;;;23.95;100.00;96847.69;5044863;28;20400;-69
2022/06/24 09:56:44;;;;;;;2.83;0.70;;;25.10;99.90;;;26.21;100.00;96831.94;5040393;28;20730;-69
2022/06/24 10:02:00;;;;;;;2.55;0.70;;;26.30;99.90;;;24.50;100.00;96830.19;5040091;28;20644;-69
2022/06/24 10:04:28;;;;;;;4.90;1.15;;;26.00;99.90;;;24.55;100.00;96835.81;5041633;28;20114;-70
2022/06/24 10:06:57;;;;;;;2.45;0.82;;;25.80;99.90;;;23.79;100.00;96834.44;5044370;28;20045;-70
2022/06/24 10:09:27;;;;;;;1.35;0.60;;;25.50;99.90;;;24.42;100.00;96833.66;5043988;28;20136;-69
2022/06/24 10:11:57;;;;;;;1.70;0.60;;;25.50;99.90;;;24.78;100.00;96838.53;5044139;28;20048;-69
2022/06/24 10:14:28;;;;;;;3.37;0.90;;;25.90;99.90;;;24.24;100.00;96843.63;5042925;28;20128;-69
2022/06/24 10:16:58;;;;;;;2.87;0.87;;;;;;;25.00;100.00;96833.47;5045904;28;20045;-69
2022/06/24 10:19:26;;;;;;;7.18;0.80;;;26.20;99.90;;;25.36;100.00;96820.50;5042974;28;20048;-69
2022/06/24 10:21:53;;;;;;;3.47;0.80;;;26.40;99.90;;;25.74;100.00;96832.97;5040357;28;20128;-71
2022/06/24 10:24:20;;;;;;;1.63;0.60;;;26.80;99.90;;;26.87;100.00;96824.03;5043032;28;20133;-71
2022/06/24 10:26:55;;;;;;;3.10;0.82;;;26.90;99.90;;;25.35;100.00;96840.06;5045677;28;20114;-71
2022/06/24 10:29:25;;;;;;;2.13;0.60;;;26.60;99.90;;;24.27;100.00;96831.88;5047427;28;20124;-71
2022/06/24 10:31:54;;;;;;;1.33;0.60;;;26.00;99.90;;;23.85;100.00;96830.28;5042810;28;20127;-72
2022/06/24 10:34:28;;;;;;;3.53;0.90;;;25.30;99.90;;;23.66;100.00;96839.38;5047032;28;20318;-71